Time;durP1;ratioP1;P1;durP2;ratioP2;P2;SDS_P1;SDS_P2;PMS_P1;PMS_P2;Temp;Humidity;BMP_temperature;BMP_pressure;BME280_temperature;BME280_humidity;BME280_pressure;Samples;Min_cycle;Max_cycle;Signal;HPM_P1;HPM_P2
2023/05/25 00:02:03;;;;;;;21.30;19.00;;;;;;;14.53;71.60;100838.80;216039;1255;60575;-73
2023/05/25 00:06:55;;;;;;;21.60;19.50;;;;;;;14.45;71.75;100839.66;216058;1255;60451;-73
2023/05/25 00:11:47;;;;;;;21.90;19.50;;;;;;;14.35;71.92;100837.70;215974;1253;60536;-73
2023/05/25 00:16:40;;;;;;;22.70;20.10;;;;;;;14.26;72.12;100833.15;216021;1256;60600;-73
2023/05/25 00:21:36;;;;;;;23.20;19.40;;;;;;;14.20;72.23;100837.13;216078;1251;60496;-73
2023/05/25 00:26:28;;;;;;;22.60;20.10;;;;;;;14.14;72.33;100842.15;216019;1254;73165;-73
2023/05/25 00:31:22;;;;;;;24.60;20.20;;;;;;;14.05;72.54;100848.91;216015;1256;60434;-73
2023/05/25 00:36:13;;;;;;;23.80;21.10;;;;;;;14.03;72.87;100855.19;215944;1253;60547;-73
2023/05/25 00:41:05;;;;;;;26.60;21.70;;;;;;;14.02;72.91;100856.58;216047;1253;60526;-73
2023/05/25 00:45:57;;;;;;;22.60;19.90;;;;;;;14.00;72.91;100856.20;215986;1253;65955;-73
2023/05/25 00:50:58;;;;;;;22.40;19.40;;;;;;;13.96;73.02;100858.29;216002;1252;60460;-73
2023/05/25 00:55:59;;;;;;;23.50;20.90;;;;;;;13.88;73.16;100855.96;215986;1253;73695;-75
2023/05/25 01:00:55;;;;;;;22.70;20.30;;;;;;;13.81;73.27;100855.06;215958;1256;72374;-73
2023/05/25 01:05:50;;;;;;;26.00;21.80;;;;;;;13.80;73.47;100858.19;215888;1254;61232;-73
2023/05/25 01:10:45;;;;;;;26.00;21.80;;;;;;;13.77;73.56;100858.16;216032;1253;66339;-73
2023/05/25 01:21:35;;;;;;;24.90;21.60;;;;;;;13.72;73.85;100861.45;209747;1271;947388;-73
2023/05/25 01:26:45;;;;;;;27.60;23.10;;;;;;;13.72;74.07;100860.24;213870;1271;73035;-73
2023/05/25 01:31:38;;;;;;;29.40;23.30;;;;;;;13.72;74.23;100862.84;213768;1270;60497;-73
2023/05/25 01:36:41;;;;;;;32.10;25.70;;;;;;;13.72;74.33;100867.20;213784;1273;65708;-73
2023/05/25 01:41:36;;;;;;;30.20;23.40;;;;;;;13.73;74.48;100865.47;213768;1272;60500;-73
2023/05/25 01:46:38;;;;;;;30.30;23.40;;;;;;;13.71;74.59;100866.85;213740;1271;74998;-73
2023/05/25 01:51:43;;;;;;;37.20;26.90;;;;;;;13.71;74.76;100868.06;213785;1271;72699;-73
2023/05/25 01:56:57;;;;;;;;;;;;;;;;;;;;;
2023/05/25 02:02:11;;;;;;;31.50;24.10;;;;;;;13.76;74.98;100866.02;213223;1270;66511;-73
2023/05/25 02:07:08;;;;;;;33.50;25.90;;;;;;;13.76;75.05;100865.14;213837;1270;60434;-73
2023/05/25 02:12:08;;;;;;;42.60;29.00;;;;;;;13.74;75.23;100862.17;213756;1273;73812;-73
2023/05/25 02:17:36;;;;;;;33.30;27.40;;;;;;;13.75;75.52;100865.11;213669;1273;71225;-73
2023/05/25 02:22:29;;;;;;;39.60;30.20;;;;;;;13.77;75.56;100867.40;213980;1271;61043;-73
2023/05/25 02:27:20;;;;;;;41.00;27.80;;;;;;;13.78;75.63;100865.50;213770;1273;60481;-73
2023/05/25 02:32:12;;;;;;;35.20;26.50;;;;;;;13.80;75.59;100867.08;213857;1270;60517;-73
2023/05/25 02:37:04;;;;;;;37.20;26.50;;;;;;;13.82;75.73;100875.80;213938;1273;65870;-73
2023/05/25 02:41:58;;;;;;;39.20;28.00;;;;;;;13.82;75.81;100877.02;213674;1271;60565;-73
2023/05/25 02:46:50;;;;;;;40.00;26.60;;;;;;;13.84;75.85;100877.38;213909;1269;59346;-73
2023/05/25 02:51:42;;;;;;;49.90;31.40;;;;;;;13.83;75.88;100877.20;213928;1272;60578;-73
2023/05/25 02:56:33;;;;;;;38.90;29.10;;;;;;;13.85;75.91;100882.42;213923;1270;60492;-73
2023/05/25 03:01:29;;;;;;;40.90;30.20;;;;;;;13.88;75.91;100879.32;213893;1270;71173;-73
2023/05/25 03:06:21;;;;;;;36.20;27.70;;;;;;;13.93;76.12;100877.26;213923;1270;60956;-73
2023/05/25 03:11:16;;;;;;;36.10;27.40;;;;;;;13.96;76.20;100877.98;213831;1271;65241;-73
2023/05/25 03:16:07;;;;;;;35.40;27.40;;;;;;;14.01;76.13;100884.10;213893;1271;60597;-73
2023/05/25 03:20:59;;;;;;;39.20;28.70;;;;;;;14.00;76.18;100884.27;214096;1270;60490;-73
2023/05/25 03:25:51;;;;;;;38.30;29.50;;;;;;;13.97;76.07;100887.39;214023;1273;60507;-73
2023/05/25 03:30:42;;;;;;;42.80;31.30;;;;;;;13.99;76.20;100903.61;213959;1270;60628;-73
2023/05/25 03:35:34;;;;;;;43.70;34.20;;;;;;;13.97;76.30;100907.08;214055;1270;60437;-73
2023/05/25 03:40:26;;;;;;;52.40;36.10;;;;;;;13.97;76.36;100911.79;214023;1269;73190;-73
2023/05/25 03:45:18;;;;;;;48.30;36.30;;;;;;;13.98;76.28;100916.84;213621;1270;60597;-73
2023/05/25 03:50:10;;;;;;;40.80;31.30;;;;;;;13.98;76.35;100920.50;213961;1271;60565;-73
2023/05/25 03:55:03;;;;;;;34.70;26.80;;;;;;;14.02;76.47;100926.98;213890;1270;60342;-73
2023/05/25 03:59:55;;;;;;;34.20;27.20;;;;;;;13.99;76.38;100928.01;214373;1270;60473;-73
2023/05/25 04:04:50;;;;;;;35.20;27.60;;;;;;;14.00;76.23;100924.16;213945;1270;67247;-73
2023/05/25 04:09:42;;;;;;;30.30;24.90;;;;;;;14.02;76.30;100922.80;213908;1270;60551;-73
2023/05/25 04:14:33;;;;;;;35.50;27.50;;;;;;;14.04;76.43;100923.68;213860;1270;63700;-72
2023/05/25 04:19:25;;;;;;;37.10;27.40;;;;;;;14.05;76.37;100931.18;213987;1270;60641;-73
2023/05/25 04:24:17;;;;;;;39.80;29.40;;;;;;;14.06;76.57;100935.71;213902;1270;73276;-73
2023/05/25 04:29:09;;;;;;;37.50;29.60;;;;;;;14.01;76.37;100941.61;213792;1270;60550;-73
2023/05/25 04:34:20;;;;;;;37.00;29.20;;;;;;;14.05;76.53;100936.75;213900;1273;59605;-73
2023/05/25 04:39:27;;;;;;;40.60;29.90;;;;;;;14.13;76.28;100928.78;213877;1270;65828;-73
2023/05/25 04:44:21;;;;;;;36.50;28.70;;;;;;;14.22;76.38;100929.54;213914;1271;60477;-73
2023/05/25 04:49:17;;;;;;;38.30;28.40;;;;;;;14.35;76.24;100935.36;214021;1270;73246;-73
2023/05/25 04:54:10;;;;;;;37.90;29.50;;;;;;;14.44;76.16;100940.80;213943;1272;73081;-73
2023/05/25 04:59:03;;;;;;;35.90;29.50;;;;;;;14.47;75.92;100940.46;213949;1270;60932;-73
2023/05/25 05:03:55;;;;;;;32.10;27.00;;;;;;;14.47;76.04;100949.20;213785;1270;60473;-73
2023/05/25 05:08:47;;;;;;;38.70;27.80;;;;;;;14.60;75.83;100952.39;213729;1272;60612;-72
2023/05/25 05:13:38;;;;;;;38.90;30.20;;;;;;;14.73;75.70;100949.16;213882;1269;60561;-73
2023/05/25 05:18:30;;;;;;;35.70;28.80;;;;;;;14.76;75.30;100953.18;213861;1269;61015;-72
2023/05/25 05:23:22;;;;;;;32.80;28.10;;;;;;;14.73;75.28;100955.44;213946;1268;60842;-72
2023/05/25 05:28:14;;;;;;;39.70;29.50;;;;;;;14.72;75.38;100958.92;214061;1270;60490;-72
2023/05/25 05:33:07;;;;;;;39.00;28.40;;;;;;;14.73;75.28;100961.20;213848;1268;73482;-73
2023/05/25 05:38:08;;;;;;;38.10;27.10;;;;;;;14.77;75.30;100960.33;214030;1268;70790;-73
2023/05/25 05:43:00;;;;;;;35.20;29.20;;;;;;;14.85;75.39;100957.73;213878;1268;60464;-72
2023/05/25 05:47:52;;;;;;;32.80;26.80;;;;;;;14.90;75.25;100964.57;213718;1270;60494;-73
2023/05/25 05:52:45;;;;;;;38.60;28.60;;;;;;;14.95;75.13;100965.98;213807;1268;60573;-72
2023/05/25 05:57:37;;;;;;;40.90;30.80;;;;;;;14.97;75.08;100971.56;213927;1268;60583;-72
2023/05/25 06:02:29;;;;;;;38.80;29.00;;;;;;;15.02;75.18;100981.02;215899;1269;59665;-73
2023/05/25 06:07:21;;;;;;;32.30;26.80;;;;;;;15.07;74.89;100984.69;215234;1272;60664;-73
2023/05/25 06:12:14;;;;;;;31.30;27.80;;;;;;;15.14;74.51;100996.23;213602;1270;60481;-73
2023/05/25 06:17:11;;;;;;;35.50;28.60;;;;;;;15.14;74.31;100998.50;213598;1269;60615;-73
2023/05/25 06:22:02;;;;;;;;;;;;;;;15.16;74.24;101002.70;213502;1273;73786;-72
2023/05/25 06:26:57;;;;;;;29.70;26.30;;;;;;;15.15;74.49;101004.09;214745;1268;60446;-73
2023/05/25 06:32:10;;;;;;;29.00;25.60;;;;;;;15.18;74.41;101014.21;213413;1270;66050;-73
2023/05/25 06:37:02;;;;;;;32.20;25.40;;;;;;;15.21;74.04;101017.21;213430;1270;60616;-74
2023/05/25 06:42:22;;;;;;;33.90;27.50;;;;;;;15.29;74.06;101028.23;213463;1270;60443;-72
2023/05/25 06:47:17;;;;;;;30.50;26.90;;;;;;;15.32;73.90;101028.93;213373;1271;71935;-72
2023/05/25 06:52:08;;;;;;;35.30;30.20;;;;;;;15.39;73.81;101027.90;213659;1269;60481;-72
2023/05/25 06:57:00;;;;;;;35.60;29.70;;;;;;;15.45;73.78;101022.48;213742;1269;60589;-72
2023/05/25 07:01:52;;;;;;;34.30;29.90;;;;;;;15.55;73.53;101021.63;213649;1270;149728;-72
2023/05/25 07:06:47;;;;;;;35.90;30.70;;;;;;;15.66;73.36;101027.77;213745;1271;60487;-73
2023/05/25 07:11:39;;;;;;;31.40;27.40;;;;;;;15.68;73.30;101028.64;213399;1270;60481;-74
2023/05/25 07:16:31;;;;;;;36.20;27.30;;;;;;;15.73;73.07;101025.84;213639;1272;60575;-74
2023/05/25 07:21:25;;;;;;;33.20;28.80;;;;;;;15.81;73.31;101028.52;213648;1270;60484;-74
2023/05/25 07:26:17;;;;;;;34.30;27.30;;;;;;;15.88;73.18;101026.42;213759;1270;60443;-74
2023/05/25 07:31:14;;;;;;;38.80;31.80;;;;;;;15.93;72.83;101027.11;213757;1270;60491;-74
2023/05/25 07:36:32;;;;;;;35.50;30.50;;;;;;;16.01;72.79;101022.73;213619;1273;60478;-74
2023/05/25 07:48:48;;;;;;;32.10;26.40;;;;;;;16.27;72.24;101024.45;212548;1270;61497;-73
2023/05/25 08:01:31;;;;;;;;;;;;;;;;;;;;;
2023/05/25 08:26:51;;;;;;;29.40;24.60;;;;;;;17.65;69.40;101006.52;210031;1286;74140;-73
2023/05/25 08:31:53;;;;;;;30.10;23.30;;;;;;;17.83;69.50;101016.21;210214;1286;74831;-72
2023/05/25 08:37:22;;;;;;;28.80;25.40;;;;;;;17.87;68.86;101015.15;210256;1288;61695;-72
2023/05/25 08:42:17;;;;;;;30.00;27.00;;;;;;;17.89;68.66;101016.01;210775;1282;66536;-72
2023/05/25 08:47:59;;;;;;;30.10;26.50;;;;;;;18.00;68.28;101018.71;211987;1276;60706;-73
2023/05/25 10:04:03;;;;;;;22.20;20.10;;;;;;;23.08;56.61;101014.11;207502;1303;72738;-72
2023/05/25 11:35:23;;;;;;;17.90;15.00;;;;;;;20.93;59.17;101009.31;210687;1289;60427;-74
2023/05/25 12:44:56;;;;;;;12.20;11.20;;;;;;;23.59;53.63;100964.73;213318;1276;71762;-73
2023/05/25 12:50:15;;;;;;;14.30;12.50;;;;;;;23.13;54.37;100960.91;213429;1273;72622;-72
2023/05/25 12:55:37;;;;;;;12.00;10.80;;;;;;;22.68;55.29;100951.66;213417;1274;59731;-72
2023/05/25 13:00:47;;;;;;;13.90;11.30;;;;;;;22.54;56.10;100943.58;213834;1270;65994;-72
2023/05/25 13:05:50;;;;;;;13.70;12.30;;;;;;;22.76;56.33;100936.04;214029;1261;59700;-72
2023/05/25 13:10:51;;;;;;;16.40;12.60;;;;;;;23.19;55.49;100932.42;214819;1260;73774;-73
2023/05/25 13:15:45;;;;;;;12.30;11.10;;;;;;;24.06;54.58;100921.01;214769;1260;71980;-74
2023/05/25 13:20:42;;;;;;;12.80;11.60;;;;;;;24.86;53.58;100910.09;214820;1264;60322;-73
2023/05/25 13:25:44;;;;;;;13.20;11.80;;;;;;;25.27;52.45;100905.45;214786;1260;66654;-73
2023/05/25 13:30:38;;;;;;;12.00;10.90;;;;;;;25.52;52.55;100896.41;214801;1260;60776;-72
2023/05/25 14:20:32;;;;;;;13.70;11.80;;;;;;;25.15;51.43;100866.38;210167;1289;59723;-72
2023/05/25 14:25:40;;;;;;;13.50;12.20;;;;;;;24.75;51.72;100864.63;214084;1269;65290;-73
2023/05/25 14:30:42;;;;;;;13.20;11.80;;;;;;;24.93;51.91;100862.66;214353;1263;59650;-73
2023/05/25 14:35:40;;;;;;;13.90;11.70;;;;;;;24.81;51.55;100862.42;214723;1260;74527;-72
2023/05/25 14:41:09;;;;;;;14.10;11.60;;;;;;;24.24;52.13;100862.98;214613;1260;72754;-73
2023/05/25 14:46:02;;;;;;;12.60;11.20;;;;;;;23.65;52.86;100871.66;214963;1260;59663;-73
2023/05/25 14:50:57;;;;;;;13.30;10.60;;;;;;;23.34;53.72;100871.30;214788;1260;65595;-73
2023/05/25 14:55:56;;;;;;;14.60;11.80;;;;;;;23.26;53.95;100866.10;214686;1260;59673;-72
2023/05/25 15:00:49;;;;;;;12.70;11.40;;;;;;;23.28;54.53;100863.02;214675;1260;72866;-72
2023/05/25 15:05:50;;;;;;;12.30;11.20;;;;;;;23.36;54.43;100862.94;214761;1260;72619;-72
2023/05/25 15:10:56;;;;;;;12.10;10.70;;;;;;;23.94;54.10;100852.42;214809;1260;59993;-72
2023/05/25 15:15:54;;;;;;;10.80;9.80;;;;;;;24.20;53.42;100853.04;214769;1263;68489;-72
2023/05/25 15:20:49;;;;;;;11.10;10.00;;;;;;;24.51;52.86;100852.77;214748;1264;59753;-72
2023/05/25 15:25:42;;;;;;;11.70;10.80;;;;;;;24.55;52.13;100854.94;214991;1260;73633;-72
2023/05/25 15:30:56;;;;;;;11.60;10.60;;;;;;;24.20;52.00;100851.65;214872;1260;71809;-72
2023/05/25 15:35:51;;;;;;;10.70;9.70;;;;;;;23.78;52.69;100852.98;215042;1259;60532;-72
2023/05/25 15:40:43;;;;;;;13.80;12.40;;;;;;;23.46;53.24;100858.16;214768;1260;59701;-72
2023/05/25 15:45:43;;;;;;;13.70;12.40;;;;;;;23.49;53.94;100854.52;214810;1259;59733;-72
2023/05/25 15:50:39;;;;;;;10.90;10.00;;;;;;;23.78;53.60;100849.45;214885;1260;73146;-72
2023/05/25 15:55:35;;;;;;;11.80;10.10;;;;;;;23.88;53.12;100846.25;215087;1259;71000;-71
2023/05/25 16:00:34;;;;;;;10.60;9.80;;;;;;;24.09;52.83;100839.67;215065;1259;60307;-74
2023/05/25 16:05:43;;;;;;;11.70;9.70;;;;;;;24.11;52.36;100838.01;215120;1259;68017;-71
2023/05/25 16:11:32;;;;;;;10.40;9.30;;;;;;;24.01;52.31;100835.73;214899;1260;59699;-72
2023/05/25 16:16:43;;;;;;;9.50;8.60;;;;;;;23.90;52.21;100837.69;214591;1260;72398;-72
2023/05/25 16:21:44;;;;;;;13.30;9.90;;;;;;;23.63;52.25;100847.84;214424;1261;72816;-72
2023/05/25 16:26:49;;;;;;;9.80;9.00;;;;;;;23.13;53.02;100851.65;214538;1260;59782;-73
2023/05/25 16:31:54;;;;;;;10.10;9.20;;;;;;;22.71;53.51;100852.09;214544;1260;66244;-72
2023/05/25 16:37:51;;;;;;;;;;;;;;;;;;;;;
2023/05/25 18:46:28;;;;;;;12.70;11.30;;;;;;;19.52;60.59;100895.97;212672;1275;59936;-74
2023/05/25 18:52:05;;;;;;;12.90;11.80;;;;;;;19.29;61.17;100901.09;213118;1273;73995;-73
2023/05/25 18:58:03;;;;;;;12.90;11.70;;;;;;;19.04;61.66;100903.60;213037;1272;71752;-74
2023/05/25 19:03:30;;;;;;;;;;;;;;;;;;;;;
2023/05/25 19:08:43;;;;;;;13.20;12.00;;;;;;;18.78;62.99;100908.16;214343;1256;66429;-74
2023/05/25 19:20:03;;;;;;;13.20;11.80;;;;;;;18.55;63.48;100913.37;214262;1261;74113;-74
2023/05/25 19:31:22;;;;;;;12.90;11.00;;;;;;;18.37;64.21;100922.19;213788;1264;62052;-74
2023/05/25 19:48:13;;;;;;;14.50;13.00;;;;;;;18.08;65.10;100924.45;213036;1270;72277;-74
2023/05/25 19:53:27;;;;;;;14.70;13.30;;;;;;;17.95;65.45;100924.59;213668;1270;72740;-74
2023/05/25 20:04:47;;;;;;;14.40;13.10;;;;;;;17.69;66.04;100921.11;213625;1271;67998;-74
2023/05/25 20:16:19;;;;;;;14.70;13.40;;;;;;;17.48;66.53;100914.81;213960;1267;72758;-74
2023/05/25 20:21:27;;;;;;;15.30;13.90;;;;;;;17.39;66.69;100916.13;214049;1267;72309;-74
2023/05/25 20:44:23;;;;;;;18.70;17.10;;;;;;;16.96;67.45;100923.42;214146;1265;73446;-74
2023/05/25 20:50:02;;;;;;;;;;;;;;;;;;;;;
2023/05/25 21:06:50;;;;;;;17.40;15.70;;;;;;;16.62;68.69;100943.52;214153;1265;60677;-74
2023/05/25 21:12:10;;;;;;;17.80;16.30;;;;;;;16.59;68.96;100944.93;214138;1265;60485;-73
2023/05/25 21:18:20;;;;;;;18.40;16.10;;;;;;;16.59;69.18;100948.26;214255;1264;73069;-74
2023/05/25 21:24:15;;;;;;;16.30;14.70;;;;;;;16.55;69.26;100955.45;214200;1264;61293;-73
2023/05/25 21:29:52;;;;;;;17.00;15.50;;;;;;;16.47;69.42;100954.61;214774;1264;69412;-74
2023/05/25 21:36:07;;;;;;;16.10;14.10;;;;;;;16.37;69.48;100962.34;214363;1259;60634;-72
2023/05/25 21:47:34;;;;;;;14.70;13.20;;;;;;;16.27;69.37;100960.44;215347;1259;72937;-71
2023/05/25 21:58:28;;;;;;;14.60;13.40;;;;;;;16.10;69.43;100972.73;214715;1263;66663;-72
2023/05/25 22:03:30;;;;;;;15.10;13.50;;;;;;;16.00;69.69;100971.86;214635;1260;60566;-72
2023/05/25 22:09:28;;;;;;;14.50;13.20;;;;;;;15.96;70.14;100973.27;214528;1262;73497;-72
2023/05/25 22:15:07;;;;;;;;;;;;;;;15.94;70.43;100980.95;214538;1261;72216;-72
2023/05/25 22:20:25;;;;;;;13.60;12.30;;;;;;;15.93;70.80;100977.27;214447;1261;60593;-72
2023/05/25 22:25:38;;;;;;;;;;;;;;;;;;;;;
2023/05/25 22:31:12;;;;;;;14.80;13.50;;;;;;;15.83;70.65;100975.90;213776;1265;60493;-73
2023/05/25 22:36:18;;;;;;;14.20;13.00;;;;;;;15.76;70.59;100979.20;214453;1262;73216;-72
2023/05/25 22:41:35;;;;;;;13.50;12.20;;;;;;;15.66;70.68;100988.80;214392;1261;73724;-73
2023/05/25 22:46:49;;;;;;;13.60;12.20;;;;;;;15.61;71.03;101000.33;214434;1261;60346;-72
2023/05/25 22:52:06;;;;;;;;;;;;;;;;;;;;;
2023/05/25 22:57:39;;;;;;;13.00;11.80;;;;;;;15.63;71.61;101005.05;214494;1262;60726;-73
2023/05/25 23:03:39;;;;;;;14.70;13.20;;;;;;;15.63;71.81;101007.31;210705;1263;5261494;-72
2023/05/25 23:09:04;;;;;;;13.30;12.20;;;;;;;15.56;71.89;101005.55;215445;1256;60556;-73
2023/05/25 23:20:05;;;;;;;15.10;13.60;;;;;;;15.42;72.14;101005.02;214620;1260;72317;-72
2023/05/25 23:25:28;;;;;;;14.60;13.10;;;;;;;15.33;72.12;101000.98;214639;1261;60997;-72
2023/05/25 23:30:40;;;;;;;13.80;12.40;;;;;;;15.23;72.28;100998.35;214709;1261;68260;-72
2023/05/25 23:36:12;;;;;;;14.40;12.50;;;;;;;15.13;72.40;100992.04;214737;1263;60448;-72
2023/05/25 23:47:25;;;;;;;;;;;;;;;;;;;;;
2023/05/25 23:52:34;;;;;;;15.70;14.30;;;;;;;15.06;73.69;101000.39;213991;1268;60462;-72
2023/05/25 23:58:04;;;;;;;16.50;14.90;;;;;;;15.17;74.31;101002.35;214373;1262;66441;-72
